sensor_id;sensor_type;location;lat;lon;timestamp;temperature;humidity
18173;DHT22;9211;48.818;9.312;2022-11-18T00:00:09;9.80;99.90
18173;DHT22;9211;48.818;9.312;2022-11-18T00:02:38;9.80;99.90
18173;DHT22;9211;48.818;9.312;2022-11-18T00:05:05;9.90;99.90
18173;DHT22;9211;48.818;9.312;2022-11-18T00:07:32;9.90;99.90
18173;DHT22;9211;48.818;9.312;2022-11-18T00:09:59;9.90;99.90
18173;DHT22;9211;48.818;9.312;2022-11-18T00:12:26;9.90;99.90
18173;DHT22;9211;48.818;9.312;2022-11-18T00:15:10;9.80;99.90
18173;DHT22;9211;48.818;9.312;2022-11-18T00:17:39;9.80;99.90
18173;DHT22;9211;48.818;9.312;2022-11-18T00:20:07;9.90;99.90
18173;DHT22;9211;48.818;9.312;2022-11-18T00:22:34;9.90;99.90
18173;DHT22;9211;48.818;9.312;2022-11-18T00:25:01;9.90;99.90
18173;DHT22;9211;48.818;9.312;2022-11-18T00:27:29;9.90;99.90
18173;DHT22;9211;48.818;9.312;2022-11-18T00:29:56;9.90;99.90
18173;DHT22;9211;48.818;9.312;2022-11-18T00:32:23;9.90;99.90
18173;DHT22;9211;48.818;9.312;2022-11-18T00:34:51;10.00;99.90
18173;DHT22;9211;48.818;9.312;2022-11-18T00:37:18;9.90;99.90
18173;DHT22;9211;48.818;9.312;2022-11-18T00:39:45;9.90;99.90
18173;DHT22;9211;48.818;9.312;2022-11-18T00:42:12;9.90;99.90
18173;DHT22;9211;48.818;9.312;2022-11-18T00:44:57;9.90;99.90
18173;DHT22;9211;48.818;9.312;2022-11-18T00:47:24;9.90;99.90
18173;DHT22;9211;48.818;9.312;2022-11-18T00:49:52;9.90;99.90
18173;DHT22;9211;48.818;9.312;2022-11-18T00:52:21;9.90;99.90
18173;DHT22;9211;48.818;9.312;2022-11-18T00:54:48;10.00;99.90
18173;DHT22;9211;48.818;9.312;2022-11-18T00:57:15;9.90;99.90
18173;DHT22;9211;48.818;9.312;2022-11-18T00:59:42;9.90;99.90
18173;DHT22;9211;48.818;9.312;2022-11-18T01:02:09;9.90;99.90
18173;DHT22;9211;48.818;9.312;2022-11-18T01:04:36;9.90;99.90
18173;DHT22;9211;48.818;9.312;2022-11-18T01:07:05;9.90;99.90
18173;DHT22;9211;48.818;9.312;2022-11-18T01:09:32;9.90;99.90
18173;DHT22;9211;48.818;9.312;2022-11-18T01:11:59;9.90;99.90
18173;DHT22;9211;48.818;9.312;2022-11-18T01:14:44;9.90;99.90
18173;DHT22;9211;48.818;9.312;2022-11-18T01:17:11;9.80;99.90
18173;DHT22;9211;48.818;9.312;2022-11-18T01:19:38;9.80;99.90
18173;DHT22;9211;48.818;9.312;2022-11-18T01:22:07;9.90;99.90
18173;DHT22;9211;48.818;9.312;2022-11-18T01:24:34;9.80;99.90
18173;DHT22;9211;48.818;9.312;2022-11-18T01:27:01;9.80;99.90
18173;DHT22;9211;48.818;9.312;2022-11-18T01:29:28;9.80;99.90
18173;DHT22;9211;48.818;9.312;2022-11-18T01:31:55;9.80;99.90
18173;DHT22;9211;48.818;9.312;2022-11-18T01:34:24;9.80;99.90
18173;DHT22;9211;48.818;9.312;2022-11-18T01:36:53;9.80;99.90
18173;DHT22;9211;48.818;9.312;2022-11-18T01:39:22;9.80;99.90
18173;DHT22;9211;48.818;9.312;2022-11-18T01:41:49;9.80;99.90
18173;DHT22;9211;48.818;9.312;2022-11-18T01:44:55;9.80;99.90
18173;DHT22;9211;48.818;9.312;2022-11-18T01:47:24;9.80;99.90
18173;DHT22;9211;48.818;9.312;2022-11-18T01:49:52;9.80;99.90
18173;DHT22;9211;48.818;9.312;2022-11-18T01:52:19;9.80;99.90
18173;DHT22;9211;48.818;9.312;2022-11-18T01:54:51;9.80;99.90
18173;DHT22;9211;48.818;9.312;2022-11-18T01:57:22;9.80;99.90
18173;DHT22;9211;48.818;9.312;2022-11-18T01:59:54;9.80;99.90
18173;DHT22;9211;48.818;9.312;2022-11-18T02:02:24;9.80;99.90
18173;DHT22;9211;48.818;9.312;2022-11-18T02:04:54;9.80;99.90
18173;DHT22;9211;48.818;9.312;2022-11-18T02:07:22;9.80;99.90
18173;DHT22;9211;48.818;9.312;2022-11-18T02:09:52;9.80;99.90
18173;DHT22;9211;48.818;9.312;2022-11-18T02:12:21;9.70;99.90
18173;DHT22;9211;48.818;9.312;2022-11-18T02:14:49;9.60;99.90
18173;DHT22;9211;48.818;9.312;2022-11-18T02:17:27;9.70;99.90
18173;DHT22;9211;48.818;9.312;2022-11-18T02:20:29;9.70;99.90
18173;DHT22;9211;48.818;9.312;2022-11-18T02:23:30;9.70;99.90
18173;DHT22;9211;48.818;9.312;2022-11-18T02:26:35;9.70;99.90
18173;DHT22;9211;48.818;9.312;2022-11-18T02:29:08;9.70;99.90
18173;DHT22;9211;48.818;9.312;2022-11-18T02:31:43;9.60;99.90
18173;DHT22;9211;48.818;9.312;2022-11-18T02:34:19;9.60;99.90
18173;DHT22;9211;48.818;9.312;2022-11-18T02:36:52;9.60;99.90
18173;DHT22;9211;48.818;9.312;2022-11-18T02:39:27;9.60;99.90
18173;DHT22;9211;48.818;9.312;2022-11-18T02:41:56;9.60;99.90
18173;DHT22;9211;48.818;9.312;2022-11-18T02:44:28;9.70;99.90
18173;DHT22;9211;48.818;9.312;2022-11-18T02:46:59;9.60;99.90
18173;DHT22;9211;48.818;9.312;2022-11-18T02:49:31;9.70;99.90
18173;DHT22;9211;48.818;9.312;2022-11-18T02:52:01;9.60;99.90
18173;DHT22;9211;48.818;9.312;2022-11-18T02:54:30;9.60;99.90
18173;DHT22;9211;48.818;9.312;2022-11-18T02:56:59;9.60;99.90
18173;DHT22;9211;48.818;9.312;2022-11-18T02:59:28;9.70;99.90
18173;DHT22;9211;48.818;9.312;2022-11-18T03:01:55;9.70;99.90
18173;DHT22;9211;48.818;9.312;2022-11-18T03:04:24;9.70;99.90
18173;DHT22;9211;48.818;9.312;2022-11-18T03:06:59;9.70;99.90
18173;DHT22;9211;48.818;9.312;2022-11-18T03:09:30;9.60;99.90
18173;DHT22;9211;48.818;9.312;2022-11-18T03:12:06;9.60;99.90
18173;DHT22;9211;48.818;9.312;2022-11-18T03:14:45;9.50;99.90
18173;DHT22;9211;48.818;9.312;2022-11-18T03:17:18;9.60;99.90
18173;DHT22;9211;48.818;9.312;2022-11-18T03:19:57;9.50;99.90
18173;DHT22;9211;48.818;9.312;2022-11-18T03:22:29;9.50;99.90
18173;DHT22;9211;48.818;9.312;2022-11-18T03:25:02;9.50;99.90
18173;DHT22;9211;48.818;9.312;2022-11-18T03:27:33;9.50;99.90
18173;DHT22;9211;48.818;9.312;2022-11-18T03:30:05;9.50;99.90
18173;DHT22;9211;48.818;9.312;2022-11-18T03:32:37;9.50;99.90
18173;DHT22;9211;48.818;9.312;2022-11-18T03:35:08;9.50;99.90
18173;DHT22;9211;48.818;9.312;2022-11-18T03:37:38;9.50;99.90
18173;DHT22;9211;48.818;9.312;2022-11-18T03:40:11;9.50;99.90
18173;DHT22;9211;48.818;9.312;2022-11-18T03:42:42;9.50;99.90
18173;DHT22;9211;48.818;9.312;2022-11-18T03:45:16;9.50;99.90
18173;DHT22;9211;48.818;9.312;2022-11-18T03:47:49;9.60;99.90
18173;DHT22;9211;48.818;9.312;2022-11-18T03:50:21;9.50;99.90
18173;DHT22;9211;48.818;9.312;2022-11-18T03:52:50;9.50;99.90
18173;DHT22;9211;48.818;9.312;2022-11-18T03:55:21;9.50;99.90
18173;DHT22;9211;48.818;9.312;2022-11-18T03:57:52;9.50;99.90
18173;DHT22;9211;48.818;9.312;2022-11-18T04:00:22;9.50;99.90
18173;DHT22;9211;48.818;9.312;2022-11-18T04:02:51;9.50;99.90
18173;DHT22;9211;48.818;9.312;2022-11-18T04:05:18;9.40;99.90
18173;DHT22;9211;48.818;9.312;2022-11-18T04:07:53;9.50;99.90
18173;DHT22;9211;48.818;9.312;2022-11-18T04:10:23;9.40;99.90
18173;DHT22;9211;48.818;9.312;2022-11-18T04:12:57;9.50;99.90
18173;DHT22;9211;48.818;9.312;2022-11-18T04:15:27;9.40;99.90
18173;DHT22;9211;48.818;9.312;2022-11-18T04:17:56;9.40;99.90
18173;DHT22;9211;48.818;9.312;2022-11-18T04:20:23;9.40;99.90
18173;DHT22;9211;48.818;9.312;2022-11-18T04:22:51;9.40;99.90
18173;DHT22;9211;48.818;9.312;2022-11-18T04:25:18;9.40;99.90
18173;DHT22;9211;48.818;9.312;2022-11-18T04:27:45;9.40;99.90
18173;DHT22;9211;48.818;9.312;2022-11-18T04:30:12;9.30;99.90
18173;DHT22;9211;48.818;9.312;2022-11-18T04:32:40;9.30;99.90
18173;DHT22;9211;48.818;9.312;2022-11-18T04:35:08;9.30;99.90
18173;DHT22;9211;48.818;9.312;2022-11-18T04:37:35;9.30;99.90
18173;DHT22;9211;48.818;9.312;2022-11-18T04:40:02;9.30;99.90
18173;DHT22;9211;48.818;9.312;2022-11-18T04:42:29;9.30;99.90
18173;DHT22;9211;48.818;9.312;2022-11-18T04:44:56;9.30;99.90
18173;DHT22;9211;48.818;9.312;2022-11-18T04:47:23;9.20;99.90
18173;DHT22;9211;48.818;9.312;2022-11-18T04:49:52;9.20;99.90
18173;DHT22;9211;48.818;9.312;2022-11-18T04:52:19;9.20;99.90
18173;DHT22;9211;48.818;9.312;2022-11-18T04:54:46;9.20;99.90
18173;DHT22;9211;48.818;9.312;2022-11-18T04:57:13;9.20;99.90
18173;DHT22;9211;48.818;9.312;2022-11-18T04:59:40;9.10;99.90
18173;DHT22;9211;48.818;9.312;2022-11-18T05:02:07;9.10;99.90
18173;DHT22;9211;48.818;9.312;2022-11-18T05:04:34;9.10;99.90
18173;DHT22;9211;48.818;9.312;2022-11-18T05:07:04;9.10;99.90
18173;DHT22;9211;48.818;9.312;2022-11-18T05:09:32;9.00;99.90
18173;DHT22;9211;48.818;9.312;2022-11-18T05:12:00;9.00;99.90
18173;DHT22;9211;48.818;9.312;2022-11-18T05:14:45;9.00;99.90
18173;DHT22;9211;48.818;9.312;2022-11-18T05:17:12;9.00;99.90
18173;DHT22;9211;48.818;9.312;2022-11-18T05:19:39;9.00;99.90
18173;DHT22;9211;48.818;9.312;2022-11-18T05:22:07;9.00;99.90
18173;DHT22;9211;48.818;9.312;2022-11-18T05:24:34;8.90;99.90
18173;DHT22;9211;48.818;9.312;2022-11-18T05:27:01;9.00;99.90
18173;DHT22;9211;48.818;9.312;2022-11-18T05:29:28;9.00;99.90
18173;DHT22;9211;48.818;9.312;2022-11-18T05:31:55;9.00;99.90
18173;DHT22;9211;48.818;9.312;2022-11-18T05:34:22;9.00;99.90
18173;DHT22;9211;48.818;9.312;2022-11-18T05:36:49;9.00;99.90
18173;DHT22;9211;48.818;9.312;2022-11-18T05:39:17;9.00;99.90
18173;DHT22;9211;48.818;9.312;2022-11-18T05:41:44;9.00;99.90
18173;DHT22;9211;48.818;9.312;2022-11-18T05:44:29;9.00;99.90
18173;DHT22;9211;48.818;9.312;2022-11-18T05:46:56;8.90;99.90
18173;DHT22;9211;48.818;9.312;2022-11-18T05:49:23;8.90;99.90
18173;DHT22;9211;48.818;9.312;2022-11-18T05:51:50;8.90;99.90
18173;DHT22;9211;48.818;9.312;2022-11-18T05:54:19;8.90;99.90
18173;DHT22;9211;48.818;9.312;2022-11-18T05:56:46;8.90;99.90
18173;DHT22;9211;48.818;9.312;2022-11-18T05:59:13;8.90;99.90
18173;DHT22;9211;48.818;9.312;2022-11-18T06:01:43;8.90;99.90
18173;DHT22;9211;48.818;9.312;2022-11-18T06:04:14;8.80;99.90
18173;DHT22;9211;48.818;9.312;2022-11-18T06:06:43;8.90;99.90
18173;DHT22;9211;48.818;9.312;2022-11-18T06:09:12;8.90;99.90
18173;DHT22;9211;48.818;9.312;2022-11-18T06:11:44;8.90;99.90
18173;DHT22;9211;48.818;9.312;2022-11-18T06:14:17;8.90;99.90
18173;DHT22;9211;48.818;9.312;2022-11-18T06:16:48;8.80;99.90
18173;DHT22;9211;48.818;9.312;2022-11-18T06:19:16;8.80;99.90
18173;DHT22;9211;48.818;9.312;2022-11-18T06:21:44;8.80;99.90
18173;DHT22;9211;48.818;9.312;2022-11-18T06:24:12;8.80;99.90
18173;DHT22;9211;48.818;9.312;2022-11-18T06:26:43;8.80;99.90
18173;DHT22;9211;48.818;9.312;2022-11-18T06:29:12;8.80;99.90
18173;DHT22;9211;48.818;9.312;2022-11-18T06:31:40;8.70;99.90
18173;DHT22;9211;48.818;9.312;2022-11-18T06:34:07;8.80;99.90
18173;DHT22;9211;48.818;9.312;2022-11-18T06:36:34;8.80;99.90
18173;DHT22;9211;48.818;9.312;2022-11-18T06:39:03;8.80;99.90
18173;DHT22;9211;48.818;9.312;2022-11-18T06:41:30;8.80;99.90
18173;DHT22;9211;48.818;9.312;2022-11-18T06:44:01;8.80;99.90
18173;DHT22;9211;48.818;9.312;2022-11-18T06:46:27;8.80;99.90
18173;DHT22;9211;48.818;9.312;2022-11-18T06:49:12;8.80;99.90
18173;DHT22;9211;48.818;9.312;2022-11-18T06:51:39;8.90;99.90
18173;DHT22;9211;48.818;9.312;2022-11-18T06:54:07;8.80;99.90
18173;DHT22;9211;48.818;9.312;2022-11-18T06:56:34;8.80;99.90
18173;DHT22;9211;48.818;9.312;2022-11-18T06:59:03;8.90;99.90
18173;DHT22;9211;48.818;9.312;2022-11-18T07:01:33;8.90;99.90
18173;DHT22;9211;48.818;9.312;2022-11-18T07:04:00;8.90;99.90
18173;DHT22;9211;48.818;9.312;2022-11-18T07:06:29;8.90;99.90
18173;DHT22;9211;48.818;9.312;2022-11-18T07:08:58;9.00;99.90
18173;DHT22;9211;48.818;9.312;2022-11-18T07:11:25;8.90;99.90
18173;DHT22;9211;48.818;9.312;2022-11-18T07:13:53;9.00;99.90
18173;DHT22;9211;48.818;9.312;2022-11-18T07:16:22;9.00;99.90
18173;DHT22;9211;48.818;9.312;2022-11-18T07:18:54;8.90;99.90
18173;DHT22;9211;48.818;9.312;2022-11-18T07:21:22;9.00;99.90
18173;DHT22;9211;48.818;9.312;2022-11-18T07:23:49;9.00;99.90
18173;DHT22;9211;48.818;9.312;2022-11-18T07:26:17;8.90;99.90
18173;DHT22;9211;48.818;9.312;2022-11-18T07:28:44;8.90;99.90
18173;DHT22;9211;48.818;9.312;2022-11-18T07:31:13;8.90;99.90
18173;DHT22;9211;48.818;9.312;2022-11-18T07:33:42;8.90;99.90
18173;DHT22;9211;48.818;9.312;2022-11-18T07:36:11;8.90;99.90
18173;DHT22;9211;48.818;9.312;2022-11-18T07:38:38;8.90;99.90
18173;DHT22;9211;48.818;9.312;2022-11-18T07:41:08;8.90;99.90
18173;DHT22;9211;48.818;9.312;2022-11-18T07:43:36;8.90;99.90
18173;DHT22;9211;48.818;9.312;2022-11-18T07:46:14;8.90;99.90
18173;DHT22;9211;48.818;9.312;2022-11-18T07:48:44;8.90;99.90
18173;DHT22;9211;48.818;9.312;2022-11-18T07:51:12;8.90;99.90
18173;DHT22;9211;48.818;9.312;2022-11-18T07:53:39;8.90;99.90
18173;DHT22;9211;48.818;9.312;2022-11-18T07:56:07;8.90;99.90
18173;DHT22;9211;48.818;9.312;2022-11-18T07:58:34;8.90;99.90
18173;DHT22;9211;48.818;9.312;2022-11-18T08:01:06;8.90;99.90
18173;DHT22;9211;48.818;9.312;2022-11-18T08:03:34;8.90;99.90
18173;DHT22;9211;48.818;9.312;2022-11-18T08:06:03;8.90;99.90
18173;DHT22;9211;48.818;9.312;2022-11-18T08:08:31;8.90;99.90
18173;DHT22;9211;48.818;9.312;2022-11-18T08:10:59;8.90;99.90
18173;DHT22;9211;48.818;9.312;2022-11-18T08:13:27;9.00;99.90
18173;DHT22;9211;48.818;9.312;2022-11-18T08:15:54;9.00;99.90
18173;DHT22;9211;48.818;9.312;2022-11-18T08:18:22;9.00;99.90
18173;DHT22;9211;48.818;9.312;2022-11-18T08:20:49;9.00;99.90
18173;DHT22;9211;48.818;9.312;2022-11-18T08:23:17;9.00;99.90
18173;DHT22;9211;48.818;9.312;2022-11-18T08:25:45;9.00;99.90
18173;DHT22;9211;48.818;9.312;2022-11-18T08:28:13;9.00;99.90
18173;DHT22;9211;48.818;9.312;2022-11-18T08:30:40;9.10;99.90
18173;DHT22;9211;48.818;9.312;2022-11-18T08:33:07;9.10;99.90
18173;DHT22;9211;48.818;9.312;2022-11-18T08:35:34;9.10;99.90
18173;DHT22;9211;48.818;9.312;2022-11-18T08:38:01;9.10;99.90
18173;DHT22;9211;48.818;9.312;2022-11-18T08:40:29;9.10;99.90
18173;DHT22;9211;48.818;9.312;2022-11-18T08:43:00;9.10;99.90
18173;DHT22;9211;48.818;9.312;2022-11-18T08:45:27;9.10;99.90
18173;DHT22;9211;48.818;9.312;2022-11-18T08:47:54;9.20;99.90
18173;DHT22;9211;48.818;9.312;2022-11-18T08:50:21;9.20;99.90
18173;DHT22;9211;48.818;9.312;2022-11-18T08:52:48;9.20;99.90
18173;DHT22;9211;48.818;9.312;2022-11-18T08:55:15;9.20;99.90
18173;DHT22;9211;48.818;9.312;2022-11-18T08:57:43;9.20;99.90
18173;DHT22;9211;48.818;9.312;2022-11-18T09:00:12;9.30;99.90
18173;DHT22;9211;48.818;9.312;2022-11-18T09:02:39;9.30;99.90
18173;DHT22;9211;48.818;9.312;2022-11-18T09:05:07;9.30;99.90
18173;DHT22;9211;48.818;9.312;2022-11-18T09:07:34;9.30;99.90
18173;DHT22;9211;48.818;9.312;2022-11-18T09:10:01;9.40;99.90
18173;DHT22;9211;48.818;9.312;2022-11-18T09:12:28;9.40;99.90
18173;DHT22;9211;48.818;9.312;2022-11-18T09:14:56;9.40;99.90
18173;DHT22;9211;48.818;9.312;2022-11-18T09:17:23;9.50;99.90
18173;DHT22;9211;48.818;9.312;2022-11-18T09:19:50;9.50;99.90
18173;DHT22;9211;48.818;9.312;2022-11-18T09:22:17;9.50;99.90
18173;DHT22;9211;48.818;9.312;2022-11-18T09:24:44;9.50;99.90
18173;DHT22;9211;48.818;9.312;2022-11-18T09:27:12;9.60;99.90
18173;DHT22;9211;48.818;9.312;2022-11-18T09:29:39;9.50;99.90
18173;DHT22;9211;48.818;9.312;2022-11-18T09:32:07;9.50;99.90
18173;DHT22;9211;48.818;9.312;2022-11-18T09:34:34;9.50;99.90
18173;DHT22;9211;48.818;9.312;2022-11-18T09:37:02;9.50;99.90
18173;DHT22;9211;48.818;9.312;2022-11-18T09:39:33;9.50;99.90
18173;DHT22;9211;48.818;9.312;2022-11-18T09:42:22;9.60;99.90
18173;DHT22;9211;48.818;9.312;2022-11-18T09:45:04;9.60;99.90
18173;DHT22;9211;48.818;9.312;2022-11-18T09:47:37;9.60;99.90
18173;DHT22;9211;48.818;9.312;2022-11-18T09:50:09;9.60;99.90
18173;DHT22;9211;48.818;9.312;2022-11-18T09:52:41;9.60;99.90
18173;DHT22;9211;48.818;9.312;2022-11-18T09:55:11;9.60;99.90
18173;DHT22;9211;48.818;9.312;2022-11-18T09:57:42;9.60;99.90
18173;DHT22;9211;48.818;9.312;2022-11-18T10:00:16;9.50;99.90
18173;DHT22;9211;48.818;9.312;2022-11-18T10:02:54;9.50;99.90
18173;DHT22;9211;48.818;9.312;2022-11-18T10:05:25;9.50;99.90
18173;DHT22;9211;48.818;9.312;2022-11-18T10:08:02;9.50;99.90
18173;DHT22;9211;48.818;9.312;2022-11-18T10:10:47;9.50;99.90
18173;DHT22;9211;48.818;9.312;2022-11-18T10:13:26;9.50;99.90
18173;DHT22;9211;48.818;9.312;2022-11-18T10:16:02;9.50;99.90
18173;DHT22;9211;48.818;9.312;2022-11-18T10:18:37;9.50;99.90
18173;DHT22;9211;48.818;9.312;2022-11-18T10:21:14;9.60;99.90
18173;DHT22;9211;48.818;9.312;2022-11-18T10:23:50;9.60;99.90
18173;DHT22;9211;48.818;9.312;2022-11-18T10:26:32;9.60;99.90
18173;DHT22;9211;48.818;9.312;2022-11-18T10:28:59;9.60;99.90
18173;DHT22;9211;48.818;9.312;2022-11-18T10:31:26;9.70;99.90
18173;DHT22;9211;48.818;9.312;2022-11-18T10:33:59;9.70;99.90
18173;DHT22;9211;48.818;9.312;2022-11-18T10:36:28;9.70;99.90
18173;DHT22;9211;48.818;9.312;2022-11-18T10:39:11;9.80;99.90
18173;DHT22;9211;48.818;9.312;2022-11-18T10:41:42;9.80;99.90
18173;DHT22;9211;48.818;9.312;2022-11-18T10:44:27;9.80;99.90
18173;DHT22;9211;48.818;9.312;2022-11-18T10:46:55;9.90;99.90
18173;DHT22;9211;48.818;9.312;2022-11-18T10:49:23;9.90;99.90
18173;DHT22;9211;48.818;9.312;2022-11-18T10:52:07;9.90;99.90
18173;DHT22;9211;48.818;9.312;2022-11-18T10:54:34;10.00;99.90
18173;DHT22;9211;48.818;9.312;2022-11-18T10:57:05;10.00;99.90
18173;DHT22;9211;48.818;9.312;2022-11-18T10:59:35;10.00;99.90
18173;DHT22;9211;48.818;9.312;2022-11-18T11:02:15;10.10;99.90
18173;DHT22;9211;48.818;9.312;2022-11-18T11:04:45;10.10;99.90
18173;DHT22;9211;48.818;9.312;2022-11-18T11:07:23;10.20;99.90
18173;DHT22;9211;48.818;9.312;2022-11-18T11:10:06;10.20;99.90
18173;DHT22;9211;48.818;9.312;2022-11-18T11:12:42;10.20;99.90
18173;DHT22;9211;48.818;9.312;2022-11-18T11:15:15;10.30;99.90
18173;DHT22;9211;48.818;9.312;2022-11-18T11:17:49;10.20;99.90
18173;DHT22;9211;48.818;9.312;2022-11-18T11:20:39;10.20;99.90
18173;DHT22;9211;48.818;9.312;2022-11-18T11:23:09;10.20;99.90
18173;DHT22;9211;48.818;9.312;2022-11-18T11:25:42;10.10;99.90
18173;DHT22;9211;48.818;9.312;2022-11-18T11:28:16;10.10;99.90
18173;DHT22;9211;48.818;9.312;2022-11-18T11:30:54;10.10;99.90
18173;DHT22;9211;48.818;9.312;2022-11-18T11:33:31;10.00;99.90
18173;DHT22;9211;48.818;9.312;2022-11-18T11:36:13;10.00;99.90
18173;DHT22;9211;48.818;9.312;2022-11-18T11:38:58;10.00;99.90
18173;DHT22;9211;48.818;9.312;2022-11-18T11:41:29;10.00;99.90
18173;DHT22;9211;48.818;9.312;2022-11-18T11:44:25;10.00;99.90
18173;DHT22;9211;48.818;9.312;2022-11-18T11:47:02;10.00;99.90
18173;DHT22;9211;48.818;9.312;2022-11-18T11:49:52;10.10;99.90
18173;DHT22;9211;48.818;9.312;2022-11-18T11:52:30;10.10;99.90
18173;DHT22;9211;48.818;9.312;2022-11-18T11:55:08;10.10;99.90
18173;DHT22;9211;48.818;9.312;2022-11-18T11:57:51;10.10;99.90
18173;DHT22;9211;48.818;9.312;2022-11-18T12:00:22;10.20;99.90
18173;DHT22;9211;48.818;9.312;2022-11-18T12:02:58;10.20;99.90
18173;DHT22;9211;48.818;9.312;2022-11-18T12:05:30;10.10;99.90
18173;DHT22;9211;48.818;9.312;2022-11-18T12:08:03;10.10;99.90
18173;DHT22;9211;48.818;9.312;2022-11-18T12:10:40;10.10;99.90
18173;DHT22;9211;48.818;9.312;2022-11-18T12:13:36;10.20;99.90
18173;DHT22;9211;48.818;9.312;2022-11-18T12:16:15;10.20;99.90
18173;DHT22;9211;48.818;9.312;2022-11-18T12:18:48;10.20;99.90
18173;DHT22;9211;48.818;9.312;2022-11-18T12:21:50;10.30;99.90
18173;DHT22;9211;48.818;9.312;2022-11-18T12:24:27;10.30;99.90
18173;DHT22;9211;48.818;9.312;2022-11-18T12:26:58;10.30;99.90
18173;DHT22;9211;48.818;9.312;2022-11-18T12:29:28;10.30;99.90
18173;DHT22;9211;48.818;9.312;2022-11-18T12:31:58;10.40;99.90
18173;DHT22;9211;48.818;9.312;2022-11-18T12:34:34;10.40;99.90
18173;DHT22;9211;48.818;9.312;2022-11-18T12:37:36;10.40;99.90
18173;DHT22;9211;48.818;9.312;2022-11-18T12:40:08;10.40;99.90
18173;DHT22;9211;48.818;9.312;2022-11-18T12:42:40;10.40;99.90
18173;DHT22;9211;48.818;9.312;2022-11-18T12:45:49;10.50;99.90
18173;DHT22;9211;48.818;9.312;2022-11-18T12:48:38;10.40;99.90
18173;DHT22;9211;48.818;9.312;2022-11-18T12:51:39;10.40;99.90
18173;DHT22;9211;48.818;9.312;2022-11-18T12:54:30;10.40;99.90
18173;DHT22;9211;48.818;9.312;2022-11-18T12:57:01;10.50;99.90
18173;DHT22;9211;48.818;9.312;2022-11-18T12:59:32;10.50;99.90
18173;DHT22;9211;48.818;9.312;2022-11-18T13:02:21;10.40;99.90
18173;DHT22;9211;48.818;9.312;2022-11-18T13:05:06;10.40;99.90
18173;DHT22;9211;48.818;9.312;2022-11-18T13:07:40;10.40;99.90
18173;DHT22;9211;48.818;9.312;2022-11-18T13:10:28;10.40;99.90
18173;DHT22;9211;48.818;9.312;2022-11-18T13:12:57;10.30;99.90
18173;DHT22;9211;48.818;9.312;2022-11-18T13:15:25;10.30;99.90
18173;DHT22;9211;48.818;9.312;2022-11-18T13:18:14;10.30;99.90
18173;DHT22;9211;48.818;9.312;2022-11-18T13:20:42;10.20;99.90
18173;DHT22;9211;48.818;9.312;2022-11-18T13:23:33;10.10;99.90
18173;DHT22;9211;48.818;9.312;2022-11-18T13:26:20;10.20;99.90
18173;DHT22;9211;48.818;9.312;2022-11-18T13:29:02;10.10;99.90
18173;DHT22;9211;48.818;9.312;2022-11-18T13:31:37;10.10;99.90
18173;DHT22;9211;48.818;9.312;2022-11-18T13:34:13;10.10;99.90
18173;DHT22;9211;48.818;9.312;2022-11-18T13:36:43;10.20;99.90
18173;DHT22;9211;48.818;9.312;2022-11-18T13:39:17;10.20;99.90
18173;DHT22;9211;48.818;9.312;2022-11-18T13:41:46;10.30;99.90
18173;DHT22;9211;48.818;9.312;2022-11-18T13:44:18;10.30;99.90
18173;DHT22;9211;48.818;9.312;2022-11-18T13:46:48;10.40;99.90
18173;DHT22;9211;48.818;9.312;2022-11-18T13:49:20;10.40;99.90
18173;DHT22;9211;48.818;9.312;2022-11-18T13:51:49;10.40;99.90
18173;DHT22;9211;48.818;9.312;2022-11-18T13:54:21;10.30;99.90
18173;DHT22;9211;48.818;9.312;2022-11-18T13:56:50;10.40;99.90
18173;DHT22;9211;48.818;9.312;2022-11-18T13:59:21;10.40;99.90
18173;DHT22;9211;48.818;9.312;2022-11-18T14:01:54;10.40;99.90
18173;DHT22;9211;48.818;9.312;2022-11-18T14:04:22;10.30;99.90
18173;DHT22;9211;48.818;9.312;2022-11-18T14:06:50;10.30;99.90
18173;DHT22;9211;48.818;9.312;2022-11-18T14:09:21;10.30;99.90
18173;DHT22;9211;48.818;9.312;2022-11-18T14:12:00;10.30;99.90
18173;DHT22;9211;48.818;9.312;2022-11-18T14:14:31;10.20;99.90
18173;DHT22;9211;48.818;9.312;2022-11-18T14:17:15;10.10;99.90
18173;DHT22;9211;48.818;9.312;2022-11-18T14:19:43;10.10;99.90
18173;DHT22;9211;48.818;9.312;2022-11-18T14:22:13;10.10;99.90
18173;DHT22;9211;48.818;9.312;2022-11-18T14:24:41;10.00;99.90
18173;DHT22;9211;48.818;9.312;2022-11-18T14:27:32;10.00;99.90
18173;DHT22;9211;48.818;9.312;2022-11-18T14:30:26;10.00;99.90
18173;DHT22;9211;48.818;9.312;2022-11-18T14:33:16;10.00;99.90
18173;DHT22;9211;48.818;9.312;2022-11-18T14:35:49;10.00;99.90
18173;DHT22;9211;48.818;9.312;2022-11-18T14:38:18;10.00;99.90
18173;DHT22;9211;48.818;9.312;2022-11-18T14:40:53;10.10;99.90
18173;DHT22;9211;48.818;9.312;2022-11-18T14:43:20;10.10;99.90
18173;DHT22;9211;48.818;9.312;2022-11-18T14:45:49;10.10;99.90
18173;DHT22;9211;48.818;9.312;2022-11-18T14:48:19;10.10;99.90
18173;DHT22;9211;48.818;9.312;2022-11-18T14:50:47;10.10;99.90
18173;DHT22;9211;48.818;9.312;2022-11-18T14:53:14;10.10;99.90
18173;DHT22;9211;48.818;9.312;2022-11-18T14:55:41;10.20;99.90
18173;DHT22;9211;48.818;9.312;2022-11-18T14:58:12;10.20;99.90
18173;DHT22;9211;48.818;9.312;2022-11-18T15:00:40;10.20;99.90
18173;DHT22;9211;48.818;9.312;2022-11-18T15:03:08;10.20;99.90
18173;DHT22;9211;48.818;9.312;2022-11-18T15:05:36;10.20;99.90
18173;DHT22;9211;48.818;9.312;2022-11-18T15:08:03;10.20;99.90
18173;DHT22;9211;48.818;9.312;2022-11-18T15:10:30;10.10;99.90
18173;DHT22;9211;48.818;9.312;2022-11-18T15:13:00;10.10;99.90
18173;DHT22;9211;48.818;9.312;2022-11-18T15:15:27;10.00;99.90
18173;DHT22;9211;48.818;9.312;2022-11-18T15:17:54;10.00;99.90
18173;DHT22;9211;48.818;9.312;2022-11-18T15:20:23;10.00;99.90
18173;DHT22;9211;48.818;9.312;2022-11-18T15:22:50;9.90;99.90
18173;DHT22;9211;48.818;9.312;2022-11-18T15:25:17;9.90;99.90
18173;DHT22;9211;48.818;9.312;2022-11-18T15:27:44;9.90;99.90
18173;DHT22;9211;48.818;9.312;2022-11-18T15:30:12;9.90;99.90
18173;DHT22;9211;48.818;9.312;2022-11-18T15:32:40;9.90;99.90
18173;DHT22;9211;48.818;9.312;2022-11-18T15:35:10;9.80;99.90
18173;DHT22;9211;48.818;9.312;2022-11-18T15:37:39;9.90;99.90
18173;DHT22;9211;48.818;9.312;2022-11-18T15:40:07;9.80;99.90
18173;DHT22;9211;48.818;9.312;2022-11-18T15:42:34;9.80;99.90
18173;DHT22;9211;48.818;9.312;2022-11-18T15:45:01;9.80;99.90
18173;DHT22;9211;48.818;9.312;2022-11-18T15:47:28;9.80;99.90
18173;DHT22;9211;48.818;9.312;2022-11-18T15:49:55;9.80;99.90
18173;DHT22;9211;48.818;9.312;2022-11-18T15:52:22;9.80;99.90
18173;DHT22;9211;48.818;9.312;2022-11-18T15:54:50;9.80;99.90
18173;DHT22;9211;48.818;9.312;2022-11-18T15:57:17;9.80;99.90
18173;DHT22;9211;48.818;9.312;2022-11-18T15:59:44;9.80;99.90
18173;DHT22;9211;48.818;9.312;2022-11-18T16:02:11;9.80;99.90
18173;DHT22;9211;48.818;9.312;2022-11-18T16:04:38;9.80;99.90
18173;DHT22;9211;48.818;9.312;2022-11-18T16:07:05;9.80;99.90
18173;DHT22;9211;48.818;9.312;2022-11-18T16:09:32;9.80;99.90
18173;DHT22;9211;48.818;9.312;2022-11-18T16:12:19;9.80;99.90
18173;DHT22;9211;48.818;9.312;2022-11-18T16:15:04;9.80;99.90
18173;DHT22;9211;48.818;9.312;2022-11-18T16:17:49;9.80;99.90
18173;DHT22;9211;48.818;9.312;2022-11-18T16:20:16;9.80;99.90
18173;DHT22;9211;48.818;9.312;2022-11-18T16:22:43;9.80;99.90
18173;DHT22;9211;48.818;9.312;2022-11-18T16:25:10;9.80;99.90